Terminal Aerodrome Forecast
Issued by NWS

Home | Current Version | Previous Version | Text Only | Print | Product List | Glossary On
Versions: 1 2 3 4 5 6 7 8 9 10 11 12 13 14 15 16 17 18 19 20
000
FTUS44 KLUB 192300
TAFCDS
TAF
KCDS 192335Z 2000/2024 15009KT P6SM SCT035
     FM200900 15007KT 5SM -SHRA BR OVC015
     FM201700 14006KT P6SM SCT015 BKN035=

USA.gov is the U.S. government's official web portal to all federal, state and local government web resources and services.